Marblehead, Massachusetts
Current Conditions -  °F | °C
As of 8:53 AM on Friday 31 Oct 2014 (Local Time) from KBVY Reporting Station
Broken Clouds Broken Clouds  
Wind Chill: 45°   Ceiling: 5500
Heat Index: 45°   Visibility: 10mi
Dew Point: 37°   Wind: 3mph
Humidity: 74%   Direction: NA
Pressure: 30.04"   Gusts: NA
Location:  42.5°N, 70.86°W
Report Text: KBVY 311253Z VRB03KT 10SM BKN055 07/03 A3004 RMK AO2 SLP169 T00720028
Loading
Personal Weather Stations






























Interactive Weather Map
Tropical Storm Tracking
New forecast layout! Learn more

10-Day Weather Forecast

Advertisements
Track Severe Weather on mobile